createdAt,value
2019-04-22T00:02:12.864Z,3.70
2019-04-22T00:04:55.709Z,3.40
2019-04-22T00:07:39.867Z,3.40
2019-04-22T00:10:12.097Z,3.47
2019-04-22T00:12:45.434Z,3.90
2019-04-22T00:15:10.109Z,3.60
2019-04-22T00:20:14.325Z,3.80
2019-04-22T00:22:44.375Z,3.70
2019-04-22T00:25:27.916Z,3.47
2019-04-22T00:28:01.003Z,3.60
2019-04-22T00:30:22.153Z,3.40
2019-04-22T00:32:59.627Z,3.80
2019-04-22T00:35:29.224Z,3.62
2019-04-22T00:38:11.200Z,3.60
2019-04-22T00:40:48.694Z,3.90
2019-04-22T00:43:19.169Z,3.80
2019-04-22T00:48:21.120Z,4.00
2019-04-22T00:51:01.323Z,3.33
2019-04-22T00:53:29.754Z,3.90
2019-04-22T00:56:07.708Z,3.70
2019-04-22T00:58:37.942Z,3.77
2019-04-22T01:01:07.787Z,3.80
2019-04-22T01:03:44.215Z,3.50
2019-04-22T01:06:09.748Z,3.67
2019-04-22T01:08:46.624Z,3.40
2019-04-22T01:11:17.168Z,3.50
2019-04-22T01:13:47.025Z,3.30
2019-04-22T01:16:17.081Z,3.77
2019-04-22T01:18:49.070Z,3.67
2019-04-22T01:21:25.189Z,3.30
2019-04-22T01:23:49.364Z,3.60
2019-04-22T01:26:22.907Z,3.60
2019-04-22T01:28:50.037Z,3.57
2019-04-22T01:31:16.208Z,3.67
2019-04-22T01:33:48.378Z,3.63
2019-04-22T01:36:30.362Z,3.60
2019-04-22T01:39:12.299Z,3.70
2019-04-22T01:41:48.417Z,3.67
2019-04-22T01:49:33.482Z,3.83
2019-04-22T01:52:12.675Z,3.80
2019-04-22T01:54:41.577Z,4.03
2019-04-22T01:57:22.878Z,3.70
2019-04-22T01:59:46.225Z,3.87
2019-04-22T02:02:32.120Z,3.73
2019-04-22T02:05:02.902Z,3.77
2019-04-22T02:07:32.366Z,3.43
2019-04-22T02:10:07.324Z,3.67
2019-04-22T02:12:33.708Z,4.20
2019-04-22T02:15:06.095Z,3.50
2019-04-22T02:17:36.849Z,3.40
2019-04-22T02:23:26.260Z,3.60
2019-04-22T02:28:53.707Z,3.57
2019-04-22T02:37:05.035Z,3.90
2019-04-22T02:39:38.797Z,3.67
2019-04-22T02:44:40.864Z,3.87
2019-04-22T02:49:37.839Z,3.60
2019-04-22T02:52:20.471Z,3.37
2019-04-22T02:54:49.384Z,3.57
2019-04-22T02:57:22.451Z,3.90
2019-04-22T02:59:52.614Z,3.53
2019-04-22T03:02:19.759Z,3.80
2019-04-22T03:05:08.871Z,4.00
2019-04-22T03:07:41.086Z,3.40
2019-04-22T03:10:16.602Z,3.70
2019-04-22T03:13:00.878Z,3.60
2019-04-22T03:15:38.146Z,3.60
2019-04-22T03:18:09.747Z,4.30
2019-04-22T03:20:33.857Z,3.80
2019-04-22T03:23:17.684Z,4.27
2019-04-22T03:28:10.265Z,3.60
2019-04-22T03:30:53.452Z,3.67
2019-04-22T03:33:23.430Z,3.87
2019-04-22T03:38:37.532Z,3.80
2019-04-22T03:41:10.186Z,3.77
2019-04-22T03:43:38.066Z,3.73
2019-04-22T03:45:46.274Z,3.80
2019-04-22T03:48:28.782Z,4.00
2019-04-22T03:51:07.928Z,3.60
2019-04-22T03:56:02.404Z,3.90
2019-04-22T03:58:37.247Z,3.80
2019-04-22T04:01:16.202Z,3.93
2019-04-22T04:03:48.196Z,3.67
2019-04-22T04:06:36.652Z,3.70
2019-04-22T04:09:01.882Z,3.77
2019-04-22T04:11:38.558Z,3.50
2019-04-22T04:14:18.721Z,4.77
2019-04-22T04:19:08.243Z,3.97
2019-04-22T04:21:37.073Z,3.80
2019-04-22T04:24:24.207Z,4.00
2019-04-22T04:31:41.306Z,3.90
2019-04-22T04:34:28.498Z,4.10
2019-04-22T04:39:45.852Z,3.90
2019-04-22T04:42:18.308Z,4.13
2019-04-22T04:47:11.678Z,4.03
2019-04-22T04:49:48.394Z,4.37
2019-04-22T04:52:22.591Z,4.07
2019-04-22T04:54:53.827Z,4.17
2019-04-22T05:00:06.032Z,3.83
2019-04-22T05:02:40.510Z,3.97
2019-04-22T05:07:38.353Z,3.83
2019-04-22T05:10:09.882Z,4.40
2019-04-22T05:15:17.675Z,4.07
2019-04-22T05:20:17.955Z,4.30
2019-04-22T05:27:42.614Z,4.23
2019-04-22T05:37:41.563Z,3.73
2019-04-22T05:42:48.324Z,4.20
2019-04-22T05:45:17.256Z,4.13
2019-04-22T05:47:50.713Z,3.80
2019-04-22T05:52:52.197Z,4.40
2019-04-22T05:57:59.696Z,3.90
2019-04-22T06:03:16.835Z,4.10
2019-04-22T06:05:47.277Z,4.30
2019-04-22T06:08:33.649Z,4.30
2019-04-22T06:11:04.135Z,4.50
2019-04-22T06:13:23.273Z,4.20
2019-04-22T06:16:20.467Z,4.47
2019-04-22T06:19:01.039Z,4.10
2019-04-22T06:21:27.836Z,4.40
2019-04-22T06:24:04.847Z,4.25
2019-04-22T06:26:42.703Z,4.40
2019-04-22T06:29:01.362Z,4.50
2019-04-22T06:36:37.845Z,4.58
2019-04-22T06:39:12.877Z,4.78
2019-04-22T06:41:37.000Z,4.67
2019-04-22T06:44:11.051Z,5.17
2019-04-22T06:46:56.386Z,4.42
2019-04-22T06:49:31.884Z,5.28
2019-04-22T06:52:08.106Z,4.77
2019-04-22T06:54:32.646Z,4.80
2019-04-22T06:57:25.191Z,4.72
2019-04-22T07:02:56.444Z,4.80
2019-04-22T07:05:28.534Z,4.62
2019-04-22T07:08:16.308Z,4.60
2019-04-22T07:10:50.355Z,4.78
2019-04-22T07:13:27.354Z,4.22
2019-04-22T07:18:31.432Z,4.60
2019-04-22T07:24:24.172Z,4.05
2019-04-22T07:26:37.807Z,4.10
2019-04-22T07:29:17.242Z,4.33
2019-04-22T07:31:45.388Z,4.35
2019-04-22T07:34:19.678Z,4.10
2019-04-22T07:36:54.642Z,3.80
2019-04-22T07:39:15.776Z,3.70
2019-04-22T07:42:10.709Z,4.00
2019-04-22T07:44:38.433Z,3.45
2019-04-22T07:47:46.665Z,3.77
2019-04-22T07:49:59.206Z,3.50
2019-04-22T07:57:32.462Z,3.92
2019-04-22T08:00:09.037Z,4.10
2019-04-22T08:02:37.910Z,3.98
2019-04-22T08:05:16.931Z,3.62
2019-04-22T08:07:34.509Z,3.05
2019-04-22T08:10:17.208Z,3.40
2019-04-22T08:12:47.057Z,3.50
2019-04-22T08:15:32.917Z,3.35
2019-04-22T08:18:01.577Z,3.55
2019-04-22T08:23:08.788Z,3.35
2019-04-22T08:25:44.186Z,3.05
2019-04-22T08:28:17.394Z,3.27
2019-04-22T08:30:51.962Z,3.30
2019-04-22T08:33:21.789Z,3.08
2019-04-22T08:36:10.500Z,3.35
2019-04-22T08:38:50.676Z,3.65
2019-04-22T08:48:54.275Z,3.15
2019-04-22T08:51:44.281Z,3.10
2019-04-22T08:54:37.683Z,3.40
2019-04-22T08:57:12.529Z,2.70
2019-04-22T08:59:36.897Z,3.12
2019-04-22T09:02:18.503Z,3.30
2019-04-22T09:05:10.899Z,3.00
2019-04-22T09:07:31.571Z,2.98
2019-04-22T09:10:02.089Z,3.00
2019-04-22T09:12:56.078Z,2.77
2019-04-22T09:15:02.487Z,2.98
2019-04-22T09:17:40.233Z,3.22
2019-04-22T09:20:15.600Z,2.85
2019-04-22T09:22:41.181Z,3.22
2019-04-22T09:25:09.487Z,3.10
2019-04-22T09:27:48.378Z,2.95
2019-04-22T09:30:22.792Z,3.00
2019-04-22T09:33:07.839Z,3.00
2019-04-22T09:38:32.865Z,2.98
2019-04-22T09:40:39.326Z,3.30
2019-04-22T09:43:44.111Z,3.40
2019-04-22T09:46:14.876Z,3.20
2019-04-22T09:48:41.725Z,3.75
2019-04-22T09:51:05.920Z,3.25
2019-04-22T09:54:00.998Z,3.50
2019-04-22T09:56:35.382Z,3.22
2019-04-22T09:59:05.580Z,3.27
2019-04-22T10:02:09.151Z,3.55
2019-04-22T10:04:18.578Z,3.42
2019-04-22T10:06:50.188Z,3.25
2019-04-22T10:09:59.371Z,3.42
2019-04-22T10:12:19.314Z,3.35
2019-04-22T10:14:52.117Z,3.35
2019-04-22T10:17:36.721Z,3.33
2019-04-22T10:20:10.214Z,3.50
2019-04-22T10:25:35.138Z,3.47
2019-04-22T10:28:27.345Z,3.10
2019-04-22T10:31:14.520Z,3.17
2019-04-22T10:33:22.396Z,3.42
2019-04-22T10:35:32.980Z,3.47
2019-04-22T10:38:04.046Z,3.45
2019-04-22T10:40:36.322Z,3.55
2019-04-22T10:43:09.387Z,3.20
2019-04-22T10:45:39.948Z,3.37
2019-04-22T10:48:12.376Z,3.62
2019-04-22T10:50:46.576Z,3.40
2019-04-22T10:53:19.758Z,3.30
2019-04-22T10:55:51.442Z,3.25
2019-04-22T10:58:22.838Z,3.10
2019-04-22T11:00:54.120Z,3.17
2019-04-22T11:03:24.626Z,3.47
2019-04-22T11:05:54.327Z,3.40
2019-04-22T11:08:32.233Z,3.58
2019-04-22T11:11:12.472Z,3.17
2019-04-22T11:13:28.429Z,3.37
2019-04-22T11:15:58.546Z,3.40
2019-04-22T11:18:29.462Z,3.15
2019-04-22T11:20:59.817Z,3.40
2019-04-22T11:23:29.607Z,3.40
2019-04-22T11:26:01.772Z,3.45
2019-04-22T11:28:31.901Z,3.15
2019-04-22T11:31:03.346Z,3.12
2019-04-22T11:33:34.377Z,3.50
2019-04-22T11:36:24.750Z,3.40
2019-04-22T11:39:00.154Z,2.80
2019-04-22T11:41:27.662Z,3.33
2019-04-22T11:43:59.162Z,3.40
2019-04-22T11:46:29.540Z,3.47
2019-04-22T11:49:00.279Z,2.90
2019-04-22T11:51:31.796Z,3.67
2019-04-22T11:54:02.924Z,3.50
2019-04-22T11:56:32.712Z,3.00
2019-04-22T11:59:02.683Z,3.02
2019-04-22T12:01:32.977Z,3.00
2019-04-22T12:04:03.950Z,3.08
2019-04-22T12:06:33.877Z,2.67
2019-04-22T12:09:05.805Z,3.02
2019-04-22T12:11:36.516Z,3.12
2019-04-22T12:14:27.753Z,3.22
2019-04-22T12:16:59.430Z,2.80
2019-04-22T12:19:29.492Z,2.87
2019-04-22T12:22:00.606Z,2.90
2019-04-22T12:24:30.355Z,3.02
2019-04-22T12:27:22.044Z,3.25
2019-04-22T12:29:51.261Z,2.98
2019-04-22T12:32:21.444Z,3.00
2019-04-22T12:34:51.454Z,3.02
2019-04-22T12:37:25.790Z,3.17
2019-04-22T12:39:55.951Z,3.02
2019-04-22T12:42:23.677Z,3.08
2019-04-22T12:44:54.110Z,2.95
2019-04-22T12:47:24.430Z,3.30
2019-04-22T12:50:06.883Z,3.37
2019-04-22T12:52:54.936Z,3.40
2019-04-22T12:55:19.730Z,3.50
2019-04-22T12:58:09.706Z,3.10
2019-04-22T13:00:40.410Z,3.20
2019-04-22T13:03:11.047Z,2.80
2019-04-22T13:05:41.030Z,2.85
2019-04-22T13:08:11.668Z,3.08
2019-04-22T13:10:51.547Z,2.98
2019-04-22T13:13:13.203Z,2.95
2019-04-22T13:15:42.932Z,2.90
2019-04-22T13:18:21.355Z,3.05
2019-04-22T13:20:46.422Z,2.72
2019-04-22T13:23:15.898Z,3.08
2019-04-22T13:25:45.372Z,2.70
2019-04-22T13:28:15.456Z,3.08
2019-04-22T13:30:46.515Z,2.70
2019-04-22T13:33:16.796Z,2.90
2019-04-22T13:35:48.023Z,3.02
2019-04-22T13:38:17.565Z,2.60
2019-04-22T13:41:00.900Z,2.95
2019-04-22T13:43:27.026Z,2.92
2019-04-22T13:45:58.036Z,3.08
2019-04-22T13:48:49.918Z,2.58
2019-04-22T13:51:30.056Z,2.90
2019-04-22T13:54:29.610Z,2.77
2019-04-22T13:56:33.192Z,2.80
2019-04-22T13:58:53.058Z,2.90
2019-04-22T14:01:14.912Z,2.77
2019-04-22T14:03:49.356Z,2.95
2019-04-22T14:06:18.842Z,2.30
2019-04-22T14:08:49.460Z,2.70
2019-04-22T14:11:28.700Z,2.60
2019-04-22T14:13:50.364Z,2.80
2019-04-22T14:16:20.377Z,2.92
2019-04-22T14:18:49.908Z,2.52
2019-04-22T14:21:20.909Z,2.17
2019-04-22T14:23:50.905Z,2.22
2019-04-22T14:26:20.595Z,2.90
2019-04-22T14:28:50.216Z,2.30
2019-04-22T14:31:20.343Z,2.27
2019-04-22T14:33:53.651Z,2.60
2019-04-22T14:36:21.448Z,2.77
2019-04-22T14:38:52.319Z,2.58
2019-04-22T14:41:42.628Z,2.52
2019-04-22T14:44:59.149Z,2.70
2019-04-22T14:47:03.518Z,2.58
2019-04-22T14:49:24.136Z,2.65
2019-04-22T14:51:55.052Z,2.83
2019-04-22T14:54:37.690Z,2.62
2019-04-22T14:56:56.379Z,2.80
2019-04-22T14:59:46.162Z,2.45
2019-04-22T15:02:17.387Z,2.92
2019-04-22T15:04:48.035Z,2.77
2019-04-22T15:07:19.082Z,2.72
2019-04-22T15:09:50.435Z,2.60
2019-04-22T15:12:29.995Z,2.62
2019-04-22T15:15:01.760Z,2.70
2019-04-22T15:17:34.374Z,2.70
2019-04-22T15:20:07.805Z,2.50
2019-04-22T15:22:38.780Z,2.70
2019-04-22T15:25:10.421Z,2.58
2019-04-22T15:27:41.485Z,2.87
2019-04-22T15:30:11.893Z,2.77
2019-04-22T15:32:41.419Z,2.80
2019-04-22T15:35:11.510Z,2.80
2019-04-22T15:37:41.447Z,2.52
2019-04-22T15:40:13.068Z,2.22
2019-04-22T15:42:45.263Z,2.45
2019-04-22T15:45:16.884Z,2.50
2019-04-22T15:47:48.241Z,2.58
2019-04-22T15:50:18.984Z,2.30
2019-04-22T15:52:51.978Z,2.40
2019-04-22T15:55:20.731Z,2.30
2019-04-22T15:57:50.279Z,2.20
2019-04-22T16:00:33.166Z,2.20
2019-04-22T16:02:55.225Z,2.30
2019-04-22T16:05:24.817Z,2.22
2019-04-22T16:07:54.991Z,2.30
2019-04-22T16:10:26.092Z,2.00
2019-04-22T16:13:06.663Z,2.12
2019-04-22T16:15:26.993Z,2.35
2019-04-22T16:18:04.843Z,2.25
2019-04-22T16:20:34.373Z,2.02
2019-04-22T16:23:07.767Z,2.20
2019-04-22T16:25:39.266Z,2.15
2019-04-22T16:28:15.474Z,2.20
2019-04-22T16:30:45.630Z,2.15
2019-04-22T16:33:17.201Z,2.17
2019-04-22T16:35:46.979Z,2.20
2019-04-22T16:38:17.086Z,2.25
2019-04-22T16:40:46.636Z,1.92
2019-04-22T16:43:16.594Z,2.27
2019-04-22T16:45:47.724Z,2.30
2019-04-22T16:48:17.721Z,2.10
2019-04-22T16:50:50.592Z,2.27
2019-04-22T16:53:23.225Z,2.22
2019-04-22T16:55:53.128Z,2.20
2019-04-22T16:58:23.159Z,2.42
2019-04-22T17:00:54.526Z,2.20
2019-04-22T17:03:30.744Z,2.60
2019-04-22T17:06:03.404Z,2.10
2019-04-22T17:08:39.291Z,2.67
2019-04-22T17:11:09.706Z,2.50
2019-04-22T17:13:40.353Z,2.20
2019-04-22T17:16:11.974Z,2.40
2019-04-22T17:18:43.606Z,2.20
2019-04-22T17:21:14.674Z,2.35
2019-04-22T17:23:45.731Z,2.35
2019-04-22T17:26:16.737Z,2.27
2019-04-22T17:28:46.423Z,2.00
2019-04-22T17:31:16.469Z,2.40
2019-04-22T17:33:46.711Z,2.33
2019-04-22T17:36:16.518Z,2.62
2019-04-22T17:38:55.020Z,2.58
2019-04-22T17:41:44.976Z,2.37
2019-04-22T17:44:27.847Z,1.95
2019-04-22T17:46:47.587Z,2.12
2019-04-22T17:49:33.872Z,2.30
2019-04-22T17:52:04.706Z,2.30
2019-04-22T17:54:34.442Z,2.08
2019-04-22T17:57:08.054Z,2.40
2019-04-22T17:59:32.757Z,2.10
2019-04-22T18:02:03.083Z,2.15
2019-04-22T18:04:46.127Z,2.20
2019-04-22T18:07:42.945Z,2.25
2019-04-22T18:10:24.341Z,2.35
2019-04-22T18:13:13.952Z,2.00
2019-04-22T18:15:18.866Z,2.02
2019-04-22T18:18:01.077Z,2.17
2019-04-22T18:20:25.499Z,2.22
2019-04-22T18:22:46.238Z,2.42
2019-04-22T18:25:24.564Z,2.10
2019-04-22T18:28:06.715Z,2.15
2019-04-22T18:30:24.264Z,2.22
2019-04-22T18:33:02.887Z,2.22
2019-04-22T18:35:35.294Z,2.40
2019-04-22T18:38:21.873Z,2.20
2019-04-22T18:40:38.680Z,2.55
2019-04-22T18:43:17.185Z,2.25
2019-04-22T18:46:11.236Z,2.40
2019-04-22T18:48:33.234Z,2.45
2019-04-22T18:51:11.909Z,2.58
2019-04-22T18:53:52.006Z,2.35
2019-04-22T18:56:16.575Z,2.25
2019-04-22T18:58:42.071Z,2.52
2019-04-22T19:00:57.758Z,2.00
2019-04-22T19:03:30.032Z,2.30
2019-04-22T19:06:48.956Z,2.17
2019-04-22T19:09:15.425Z,2.52
2019-04-22T19:11:51.353Z,2.17
2019-04-22T19:14:20.592Z,2.15
2019-04-22T19:16:45.154Z,2.50
2019-04-22T19:19:30.405Z,2.15
2019-04-22T19:21:47.680Z,2.40
2019-04-22T19:24:19.679Z,2.10
2019-04-22T19:27:09.342Z,2.40
2019-04-22T19:29:45.208Z,2.50
2019-04-22T19:32:40.174Z,1.95
2019-04-22T19:35:25.630Z,2.30
2019-04-22T19:37:54.484Z,2.30
2019-04-22T19:40:46.197Z,2.40
2019-04-22T19:43:12.134Z,2.30
2019-04-22T19:45:36.832Z,2.33
2019-04-22T19:48:39.703Z,2.42
2019-04-22T19:53:35.583Z,2.52
2019-04-22T19:55:59.933Z,2.70
2019-04-22T19:58:47.399Z,2.30
2019-04-22T20:01:48.633Z,2.70
2019-04-22T20:06:53.498Z,2.40
2019-04-22T20:09:33.407Z,2.35
2019-04-22T20:11:57.608Z,2.50
2019-04-22T20:14:49.499Z,2.50
2019-04-22T20:17:24.472Z,2.47
2019-04-22T20:19:57.781Z,2.37
2019-04-22T20:22:17.494Z,2.45
2019-04-22T20:24:43.508Z,2.42
2019-04-22T20:27:43.132Z,2.50
2019-04-22T20:30:02.384Z,2.40
2019-04-22T20:32:26.303Z,2.35
2019-04-22T20:35:05.966Z,2.25
2019-04-22T20:37:54.986Z,2.67
2019-04-22T20:40:25.319Z,2.42
2019-04-22T20:45:45.898Z,2.52
2019-04-22T20:48:40.884Z,2.45
2019-04-22T20:51:38.510Z,2.37
2019-04-22T20:54:02.247Z,2.47
2019-04-22T20:56:25.446Z,2.25
2019-04-22T20:58:56.170Z,2.30
2019-04-22T21:01:28.610Z,2.52
2019-04-22T21:03:48.945Z,2.40
2019-04-22T21:06:35.019Z,2.58
2019-04-22T21:09:07.090Z,2.40
2019-04-22T21:11:34.051Z,2.67
2019-04-22T21:13:59.800Z,2.40
2019-04-22T21:16:39.896Z,2.47
2019-04-22T21:19:20.001Z,2.17
2019-04-22T21:21:46.679Z,2.52
2019-04-22T21:24:04.973Z,2.60
2019-04-22T21:27:09.183Z,2.50
2019-04-22T21:29:32.000Z,2.45
2019-04-22T21:32:10.810Z,2.35
2019-04-22T21:34:46.201Z,2.60
2019-04-22T21:37:15.969Z,2.67
2019-04-22T21:39:36.358Z,2.70
2019-04-22T21:42:12.654Z,2.60
2019-04-22T21:44:38.119Z,2.47
2019-04-22T21:47:46.182Z,2.60
2019-04-22T21:53:00.657Z,2.45
2019-04-22T21:55:29.688Z,2.65
2019-04-22T21:58:27.985Z,2.30
2019-04-22T22:01:07.631Z,2.55
2019-04-22T22:03:30.024Z,2.52
2019-04-22T22:05:48.143Z,2.27
2019-04-22T22:08:37.437Z,2.65
2019-04-22T22:11:22.808Z,2.20
2019-04-22T22:13:50.432Z,2.50
2019-04-22T22:16:19.152Z,2.60
2019-04-22T22:19:11.153Z,2.72
2019-04-22T22:21:53.151Z,2.37
2019-04-22T22:24:41.626Z,2.40
2019-04-22T22:27:10.971Z,2.45
2019-04-22T22:29:50.441Z,2.50
2019-04-22T22:32:19.958Z,2.52
2019-04-22T22:34:47.522Z,2.55
2019-04-22T22:37:25.106Z,2.70
2019-04-22T22:39:55.520Z,2.40
2019-04-22T22:42:22.484Z,2.27
2019-04-22T22:45:19.965Z,2.30
2019-04-22T22:48:03.852Z,2.25
2019-04-22T22:50:33.701Z,2.75
2019-04-22T22:53:17.195Z,2.40
2019-04-22T22:55:33.254Z,2.50
2019-04-22T22:58:11.395Z,2.30
2019-04-22T23:00:35.632Z,2.60
2019-04-22T23:05:44.949Z,2.37
2019-04-22T23:08:16.970Z,2.67
2019-04-22T23:10:57.357Z,2.83
2019-04-22T23:13:38.939Z,2.47
2019-04-22T23:16:03.308Z,2.65
2019-04-22T23:18:17.182Z,2.50
2019-04-22T23:20:49.614Z,2.75
2019-04-22T23:23:38.169Z,2.70
2019-04-22T23:26:19.508Z,2.60
2019-04-22T23:28:51.038Z,3.00
2019-04-22T23:31:20.993Z,2.52
2019-04-22T23:33:57.233Z,2.70
2019-04-22T23:36:23.747Z,2.67
2019-04-22T23:39:06.924Z,2.65
2019-04-22T23:41:50.467Z,2.60
2019-04-22T23:44:13.786Z,2.77
2019-04-22T23:46:38.018Z,2.47
2019-04-22T23:49:11.712Z,2.77
2019-04-22T23:51:55.595Z,2.80
2019-04-22T23:54:25.669Z,2.77
2019-04-22T23:56:47.016Z,2.67
2019-04-22T23:59:34.014Z,3.12
